Pagrindinis puslapis
METAR-TAF:

METAR-TAF

Oro uostai :

Elim, Aliaska, Jungtinės Amerikos Valstijos

platuma: 64-36-54N, ilguma: 162-16-14W, Aukštis: 49 m

Dabartinis oras

Ataskaita buvo paskelbta 15 minutes, ne 04:56 UTC
Vėjas 9 kt iš Šiaurės su gūsio iki 16 kt
Temperatūra 14°C
Drėgmė 72%
Slėgis 1000 hPa
Matomumas: 16.1 km
Apsiniaukę ne aukštis 7000 ft

METAR: PFEL 160456Z AUTO 01009G16KT 10SM OVC070 14/09 A2952 RMK AO2 SLP999 T01390089

Laikas: 21:11 (05:11 UTC)


TAF: trūkstamas

Orai ataskaitas ir orų prognozės (METAR, TAF).

turimą stotys yra geltonos ir raudonos taškus žemėlapyje.

Perkelti pele per norėdami pamatyti stoties vardą.

Tada spustelėkite, norėdami matyti oro stebėjimo ir prognozės.

Norėdami pakeisti žemėlapį: spustelėkite ant žalios mygtukų su juodo kryžiaus žemyn,; žalią mygtuką su brūkšneliu, jei norite nutolinti; arba žalių rodyklių gretimoms žemėlapius.


METAR-TAF: